Iroquois, South Dakota
Current Conditions -  °F | °C
As of 3:55 AM on Saturday 22 Nov 2014 (Local Time) from KHON Reporting Station
Haze Haze  
Wind Chill: 19°   Ceiling: Unl
Heat Index: 25°   Visibility: 5mi
Dew Point: 23°   Wind: 5mph
Humidity: 92%   Direction: 160°SSE
Pressure: 29.75"   Gusts: NA
Location:  44.37°N, 97.85°W
Report Text: KHON 220955Z AUTO 16004KT 5SM BR CLR M04/M05 A2975 RMK AO2 SLP087 I1000 T10391050
Loading
Personal Weather Stations






























Interactive Weather Map New forecast layout! Learn more

10-Day Weather Forecast

Advertisements
Track Severe Weather on mobile